sensor_id;sensor_type;location;lat;lon;timestamp;P1;durP1;ratioP1;P2;durP2;ratioP2
37655;SDS011;23498;50.958;3.124;2023-03-05T02:34:31;11.68;;;7.30;;
37655;SDS011;23498;50.958;3.124;2023-03-05T02:36:57;14.40;;;7.53;;
37655;SDS011;23498;50.958;3.124;2023-03-05T02:39:25;15.40;;;7.22;;
37655;SDS011;23498;50.958;3.124;2023-03-05T02:41:51;12.57;;;7.57;;
37655;SDS011;23498;50.958;3.124;2023-03-05T02:44:17;14.38;;;7.93;;
37655;SDS011;23498;50.958;3.124;2023-03-05T02:46:43;12.80;;;7.13;;
37655;SDS011;23498;50.958;3.124;2023-03-05T02:49:12;18.38;;;8.15;;
37655;SDS011;23498;50.958;3.124;2023-03-05T02:51:38;17.42;;;7.82;;
37655;SDS011;23498;50.958;3.124;2023-03-05T02:54:06;13.38;;;7.60;;
37655;SDS011;23498;50.958;3.124;2023-03-05T02:56:32;16.42;;;8.43;;
37655;SDS011;23498;50.958;3.124;2023-03-05T02:58:59;16.02;;;8.63;;
37655;SDS011;23498;50.958;3.124;2023-03-05T03:01:25;12.32;;;7.50;;
37655;SDS011;23498;50.958;3.124;2023-03-05T03:07:13;14.07;;;7.40;;
37655;SDS011;23498;50.958;3.124;2023-03-05T03:12:45;10.88;;;7.05;;
37655;SDS011;23498;50.958;3.124;2023-03-05T03:15:38;13.55;;;7.70;;
37655;SDS011;23498;50.958;3.124;2023-03-05T03:18:12;11.38;;;6.85;;
37655;SDS011;23498;50.958;3.124;2023-03-05T03:24:06;11.43;;;7.03;;
37655;SDS011;23498;50.958;3.124;2023-03-05T03:26:37;12.52;;;6.43;;
37655;SDS011;23498;50.958;3.124;2023-03-05T03:29:26;11.80;;;7.32;;
37655;SDS011;23498;50.958;3.124;2023-03-05T03:32:00;11.23;;;6.97;;
37655;SDS011;23498;50.958;3.124;2023-03-05T03:34:28;9.80;;;6.68;;
37655;SDS011;23498;50.958;3.124;2023-03-05T03:36:54;12.48;;;7.93;;
37655;SDS011;23498;50.958;3.124;2023-03-05T03:39:21;15.00;;;7.88;;
37655;SDS011;23498;50.958;3.124;2023-03-05T03:41:52;14.45;;;8.38;;
37655;SDS011;23498;50.958;3.124;2023-03-05T03:44:27;15.13;;;9.10;;
37655;SDS011;23498;50.958;3.124;2023-03-05T03:46:53;14.35;;;8.60;;
37655;SDS011;23498;50.958;3.124;2023-03-05T03:49:23;14.50;;;9.10;;
37655;SDS011;23498;50.958;3.124;2023-03-05T03:51:52;14.30;;;9.38;;
37655;SDS011;23498;50.958;3.124;2023-03-05T03:54:29;14.18;;;8.43;;
37655;SDS011;23498;50.958;3.124;2023-03-05T03:56:57;15.43;;;9.77;;
37655;SDS011;23498;50.958;3.124;2023-03-05T03:59:24;16.20;;;9.45;;
37655;SDS011;23498;50.958;3.124;2023-03-05T04:01:55;15.82;;;8.77;;
37655;SDS011;23498;50.958;3.124;2023-03-05T04:04:26;13.55;;;8.88;;
37655;SDS011;23498;50.958;3.124;2023-03-05T04:06:54;14.43;;;8.88;;
37655;SDS011;23498;50.958;3.124;2023-03-05T04:09:20;16.50;;;9.27;;
37655;SDS011;23498;50.958;3.124;2023-03-05T04:11:46;16.65;;;9.35;;
37655;SDS011;23498;50.958;3.124;2023-03-05T04:14:18;16.30;;;9.50;;
37655;SDS011;23498;50.958;3.124;2023-03-05T04:16:44;16.55;;;9.93;;
37655;SDS011;23498;50.958;3.124;2023-03-05T04:19:13;18.05;;;10.07;;
37655;SDS011;23498;50.958;3.124;2023-03-05T04:24:37;18.55;;;10.77;;
37655;SDS011;23498;50.958;3.124;2023-03-05T04:27:18;20.75;;;11.10;;
37655;SDS011;23498;50.958;3.124;2023-03-05T04:29:55;18.52;;;10.68;;
37655;SDS011;23498;50.958;3.124;2023-03-05T04:32:21;20.90;;;10.90;;
37655;SDS011;23498;50.958;3.124;2023-03-05T04:34:52;17.08;;;10.18;;
37655;SDS011;23498;50.958;3.124;2023-03-05T04:37:21;20.83;;;10.40;;
37655;SDS011;23498;50.958;3.124;2023-03-05T04:39:52;17.25;;;10.35;;
37655;SDS011;23498;50.958;3.124;2023-03-05T04:42:34;17.08;;;9.65;;
37655;SDS011;23498;50.958;3.124;2023-03-05T04:45:38;18.33;;;9.82;;
37655;SDS011;23498;50.958;3.124;2023-03-05T04:48:09;15.68;;;8.95;;
37655;SDS011;23498;50.958;3.124;2023-03-05T04:50:47;13.57;;;8.45;;
37655;SDS011;23498;50.958;3.124;2023-03-05T04:56:40;14.27;;;8.43;;
37655;SDS011;23498;50.958;3.124;2023-03-05T04:59:25;15.10;;;8.20;;
37655;SDS011;23498;50.958;3.124;2023-03-05T05:01:52;15.60;;;8.30;;
37655;SDS011;23498;50.958;3.124;2023-03-05T05:04:27;17.42;;;10.07;;
37655;SDS011;23498;50.958;3.124;2023-03-05T05:07:10;19.30;;;10.45;;
37655;SDS011;23498;50.958;3.124;2023-03-05T05:13:10;20.30;;;11.15;;
37655;SDS011;23498;50.958;3.124;2023-03-05T05:15:38;18.38;;;11.15;;
37655;SDS011;23498;50.958;3.124;2023-03-05T05:18:20;19.00;;;11.40;;
37655;SDS011;23498;50.958;3.124;2023-03-05T05:20:52;20.15;;;10.80;;
37655;SDS011;23498;50.958;3.124;2023-03-05T05:23:21;16.70;;;9.70;;
37655;SDS011;23498;50.958;3.124;2023-03-05T05:25:59;17.10;;;9.95;;
37655;SDS011;23498;50.958;3.124;2023-03-05T05:28:30;13.13;;;8.90;;
37655;SDS011;23498;50.958;3.124;2023-03-05T05:31:09;12.77;;;8.25;;
37655;SDS011;23498;50.958;3.124;2023-03-05T05:33:58;12.85;;;8.43;;
37655;SDS011;23498;50.958;3.124;2023-03-05T05:36:39;16.30;;;9.15;;
37655;SDS011;23498;50.958;3.124;2023-03-05T05:39:16;15.45;;;8.90;;
37655;SDS011;23498;50.958;3.124;2023-03-05T05:42:23;14.53;;;8.37;;
37655;SDS011;23498;50.958;3.124;2023-03-05T05:44:55;12.35;;;8.35;;
37655;SDS011;23498;50.958;3.124;2023-03-05T05:50:12;12.57;;;8.18;;
37655;SDS011;23498;50.958;3.124;2023-03-05T05:55:57;14.75;;;8.93;;
37655;SDS011;23498;50.958;3.124;2023-03-05T05:58:27;15.63;;;9.85;;
37655;SDS011;23498;50.958;3.124;2023-03-05T06:00:59;17.20;;;10.88;;
37655;SDS011;23498;50.958;3.124;2023-03-05T06:03:29;18.03;;;10.93;;
37655;SDS011;23498;50.958;3.124;2023-03-05T06:09:29;16.55;;;9.68;;
37655;SDS011;23498;50.958;3.124;2023-03-05T06:12:03;15.63;;;8.88;;
37655;SDS011;23498;50.958;3.124;2023-03-05T06:14:32;12.53;;;8.70;;
37655;SDS011;23498;50.958;3.124;2023-03-05T06:17:02;14.52;;;8.32;;
37655;SDS011;23498;50.958;3.124;2023-03-05T06:19:48;14.30;;;8.10;;
37655;SDS011;23498;50.958;3.124;2023-03-05T06:22:25;17.63;;;9.65;;
37655;SDS011;23498;50.958;3.124;2023-03-05T06:24:54;15.20;;;8.60;;
37655;SDS011;23498;50.958;3.124;2023-03-05T06:27:20;14.75;;;7.60;;
37655;SDS011;23498;50.958;3.124;2023-03-05T06:29:52;15.88;;;8.45;;
37655;SDS011;23498;50.958;3.124;2023-03-05T06:32:23;12.70;;;7.80;;
37655;SDS011;23498;50.958;3.124;2023-03-05T06:38:14;11.23;;;7.07;;
37655;SDS011;23498;50.958;3.124;2023-03-05T06:40:40;12.27;;;7.25;;
37655;SDS011;23498;50.958;3.124;2023-03-05T06:43:06;11.07;;;6.35;;
37655;SDS011;23498;50.958;3.124;2023-03-05T06:45:32;13.15;;;6.38;;
37655;SDS011;23498;50.958;3.124;2023-03-05T06:47:58;11.30;;;6.53;;
37655;SDS011;23498;50.958;3.124;2023-03-05T06:50:24;9.80;;;6.30;;
37655;SDS011;23498;50.958;3.124;2023-03-05T06:52:50;10.32;;;7.28;;
37655;SDS011;23498;50.958;3.124;2023-03-05T06:55:17;11.75;;;7.18;;
37655;SDS011;23498;50.958;3.124;2023-03-05T06:57:43;12.05;;;7.38;;
37655;SDS011;23498;50.958;3.124;2023-03-05T07:00:09;10.80;;;6.75;;
37655;SDS011;23498;50.958;3.124;2023-03-05T07:02:36;10.20;;;7.15;;
37655;SDS011;23498;50.958;3.124;2023-03-05T07:05:03;11.18;;;7.28;;
37655;SDS011;23498;50.958;3.124;2023-03-05T07:07:29;12.60;;;6.80;;
37655;SDS011;23498;50.958;3.124;2023-03-05T07:09:55;11.43;;;6.63;;
37655;SDS011;23498;50.958;3.124;2023-03-05T07:12:21;10.75;;;6.68;;
37655;SDS011;23498;50.958;3.124;2023-03-05T07:14:47;11.82;;;6.90;;
37655;SDS011;23498;50.958;3.124;2023-03-05T07:17:13;8.90;;;6.00;;
37655;SDS011;23498;50.958;3.124;2023-03-05T07:19:39;9.63;;;5.75;;
37655;SDS011;23498;50.958;3.124;2023-03-05T07:22:06;10.10;;;4.75;;
37655;SDS011;23498;50.958;3.124;2023-03-05T07:24:32;9.35;;;4.85;;
37655;SDS011;23498;50.958;3.124;2023-03-05T07:26:58;7.47;;;3.90;;
37655;SDS011;23498;50.958;3.124;2023-03-05T07:29:25;7.57;;;4.13;;
37655;SDS011;23498;50.958;3.124;2023-03-05T07:31:51;6.63;;;4.10;;
37655;SDS011;23498;50.958;3.124;2023-03-05T07:34:17;5.47;;;4.10;;
37655;SDS011;23498;50.958;3.124;2023-03-05T07:36:44;5.80;;;3.92;;
37655;SDS011;23498;50.958;3.124;2023-03-05T07:39:11;8.88;;;4.30;;
37655;SDS011;23498;50.958;3.124;2023-03-05T07:41:37;6.63;;;3.97;;
37655;SDS011;23498;50.958;3.124;2023-03-05T07:44:03;7.13;;;4.10;;
37655;SDS011;23498;50.958;3.124;2023-03-05T07:46:30;5.95;;;3.97;;
37655;SDS011;23498;50.958;3.124;2023-03-05T07:48:57;6.35;;;4.22;;
37655;SDS011;23498;50.958;3.124;2023-03-05T07:51:23;5.53;;;3.75;;
37655;SDS011;23498;50.958;3.124;2023-03-05T07:53:51;5.85;;;3.63;;
37655;SDS011;23498;50.958;3.124;2023-03-05T07:56:21;6.82;;;3.78;;
37655;SDS011;23498;50.958;3.124;2023-03-05T07:58:48;6.23;;;3.47;;
37655;SDS011;23498;50.958;3.124;2023-03-05T08:01:14;6.63;;;3.65;;
37655;SDS011;23498;50.958;3.124;2023-03-05T08:03:43;6.97;;;3.35;;
37655;SDS011;23498;50.958;3.124;2023-03-05T08:06:11;5.82;;;3.25;;
37655;SDS011;23498;50.958;3.124;2023-03-05T08:08:37;6.75;;;3.53;;
37655;SDS011;23498;50.958;3.124;2023-03-05T08:11:04;5.32;;;3.13;;
37655;SDS011;23498;50.958;3.124;2023-03-05T08:13:32;6.05;;;2.97;;
37655;SDS011;23498;50.958;3.124;2023-03-05T08:15:58;4.38;;;2.97;;
37655;SDS011;23498;50.958;3.124;2023-03-05T08:18:24;5.38;;;3.63;;
37655;SDS011;23498;50.958;3.124;2023-03-05T08:20:50;5.68;;;3.20;;
37655;SDS011;23498;50.958;3.124;2023-03-05T08:23:16;5.40;;;3.28;;
37655;SDS011;23498;50.958;3.124;2023-03-05T08:25:42;4.88;;;3.25;;
37655;SDS011;23498;50.958;3.124;2023-03-05T08:28:08;4.97;;;3.13;;
37655;SDS011;23498;50.958;3.124;2023-03-05T08:30:34;5.07;;;3.05;;
37655;SDS011;23498;50.958;3.124;2023-03-05T08:33:00;4.68;;;2.60;;
37655;SDS011;23498;50.958;3.124;2023-03-05T08:35:26;5.75;;;2.28;;
37655;SDS011;23498;50.958;3.124;2023-03-05T08:37:52;6.82;;;2.85;;
37655;SDS011;23498;50.958;3.124;2023-03-05T08:40:18;5.90;;;2.70;;
37655;SDS011;23498;50.958;3.124;2023-03-05T08:42:44;4.63;;;2.38;;
37655;SDS011;23498;50.958;3.124;2023-03-05T08:45:11;5.22;;;2.47;;
37655;SDS011;23498;50.958;3.124;2023-03-05T08:47:37;4.30;;;2.40;;
37655;SDS011;23498;50.958;3.124;2023-03-05T08:50:03;4.60;;;2.53;;
37655;SDS011;23498;50.958;3.124;2023-03-05T08:52:29;4.70;;;3.00;;
37655;SDS011;23498;50.958;3.124;2023-03-05T08:54:55;5.97;;;2.83;;
37655;SDS011;23498;50.958;3.124;2023-03-05T08:57:21;5.85;;;2.47;;
37655;SDS011;23498;50.958;3.124;2023-03-05T08:59:47;5.22;;;2.90;;
37655;SDS011;23498;50.958;3.124;2023-03-05T09:02:13;4.53;;;2.80;;
37655;SDS011;23498;50.958;3.124;2023-03-05T09:04:39;6.82;;;2.78;;
37655;SDS011;23498;50.958;3.124;2023-03-05T09:07:05;4.88;;;2.70;;
37655;SDS011;23498;50.958;3.124;2023-03-05T09:09:31;4.95;;;2.78;;
37655;SDS011;23498;50.958;3.124;2023-03-05T09:11:58;4.68;;;2.58;;
37655;SDS011;23498;50.958;3.124;2023-03-05T09:14:24;6.18;;;2.60;;
37655;SDS011;23498;50.958;3.124;2023-03-05T09:16:54;4.78;;;2.45;;
37655;SDS011;23498;50.958;3.124;2023-03-05T09:19:20;4.88;;;2.58;;
37655;SDS011;23498;50.958;3.124;2023-03-05T09:21:55;5.25;;;2.22;;
37655;SDS011;23498;50.958;3.124;2023-03-05T09:24:22;4.35;;;2.20;;
37655;SDS011;23498;50.958;3.124;2023-03-05T09:29:42;5.22;;;2.17;;
37655;SDS011;23498;50.958;3.124;2023-03-05T09:47:44;5.15;;;2.30;;
37655;SDS011;23498;50.958;3.124;2023-03-05T09:50:27;4.60;;;2.05;;
37655;SDS011;23498;50.958;3.124;2023-03-05T09:53:05;3.63;;;1.80;;
37655;SDS011;23498;50.958;3.124;2023-03-05T10:23:57;4.35;;;2.50;;
37655;SDS011;23498;50.958;3.124;2023-03-05T10:26:34;6.38;;;2.90;;
37655;SDS011;23498;50.958;3.124;2023-03-05T10:31:53;4.97;;;3.08;;
37655;SDS011;23498;50.958;3.124;2023-03-05T10:44:57;8.07;;;4.60;;
37655;SDS011;23498;50.958;3.124;2023-03-05T10:50:14;8.40;;;4.32;;
37655;SDS011;23498;50.958;3.124;2023-03-05T10:52:41;9.43;;;4.88;;
37655;SDS011;23498;50.958;3.124;2023-03-05T10:55:13;10.35;;;4.50;;
37655;SDS011;23498;50.958;3.124;2023-03-05T10:57:40;8.80;;;4.63;;
37655;SDS011;23498;50.958;3.124;2023-03-05T11:02:32;6.10;;;3.15;;
37655;SDS011;23498;50.958;3.124;2023-03-05T11:04:59;8.52;;;3.58;;
37655;SDS011;23498;50.958;3.124;2023-03-05T11:10:03;3.63;;;1.90;;
37655;SDS011;23498;50.958;3.124;2023-03-05T11:12:33;4.60;;;1.30;;
37655;SDS011;23498;50.958;3.124;2023-03-05T11:20:35;5.45;;;1.13;;
37655;SDS011;23498;50.958;3.124;2023-03-05T11:29:00;3.88;;;1.00;;
37655;SDS011;23498;50.958;3.124;2023-03-05T11:31:33;3.40;;;1.00;;
37655;SDS011;23498;50.958;3.124;2023-03-05T11:39:34;2.15;;;0.80;;
37655;SDS011;23498;50.958;3.124;2023-03-05T11:42:03;2.30;;;0.90;;
37655;SDS011;23498;50.958;3.124;2023-03-05T11:47:41;3.33;;;1.10;;
37655;SDS011;23498;50.958;3.124;2023-03-05T11:52:48;2.92;;;0.88;;
37655;SDS011;23498;50.958;3.124;2023-03-05T11:58:00;3.03;;;1.10;;
37655;SDS011;23498;50.958;3.124;2023-03-05T12:00:32;2.17;;;0.93;;
37655;SDS011;23498;50.958;3.124;2023-03-05T12:02:59;4.25;;;1.10;;
37655;SDS011;23498;50.958;3.124;2023-03-05T12:05:27;2.85;;;1.10;;
37655;SDS011;23498;50.958;3.124;2023-03-05T12:07:56;4.03;;;1.42;;
37655;SDS011;23498;50.958;3.124;2023-03-05T12:10:23;3.15;;;1.23;;
37655;SDS011;23498;50.958;3.124;2023-03-05T12:12:52;2.10;;;1.10;;
37655;SDS011;23498;50.958;3.124;2023-03-05T12:15:40;3.88;;;1.13;;
37655;SDS011;23498;50.958;3.124;2023-03-05T12:23:13;4.10;;;1.52;;
37655;SDS011;23498;50.958;3.124;2023-03-05T12:25:45;3.22;;;1.30;;
37655;SDS011;23498;50.958;3.124;2023-03-05T12:28:15;5.38;;;1.40;;
37655;SDS011;23498;50.958;3.124;2023-03-05T12:30:52;4.40;;;1.70;;
37655;SDS011;23498;50.958;3.124;2023-03-05T12:33:32;3.55;;;1.50;;
37655;SDS011;23498;50.958;3.124;2023-03-05T12:38:44;7.53;;;2.10;;
37655;SDS011;23498;50.958;3.124;2023-03-05T12:46:43;3.83;;;1.77;;
37655;SDS011;23498;50.958;3.124;2023-03-05T12:51:47;4.78;;;2.03;;
37655;SDS011;23498;50.958;3.124;2023-03-05T12:54:36;5.25;;;1.98;;
37655;SDS011;23498;50.958;3.124;2023-03-05T13:00:21;6.07;;;2.63;;
37655;SDS011;23498;50.958;3.124;2023-03-05T13:02:34;6.28;;;2.72;;
37655;SDS011;23498;50.958;3.124;2023-03-05T13:05:15;5.80;;;3.30;;
37655;SDS011;23498;50.958;3.124;2023-03-05T13:07:42;11.82;;;9.90;;
37655;SDS011;23498;50.958;3.124;2023-03-05T13:10:19;8.35;;;5.15;;
37655;SDS011;23498;50.958;3.124;2023-03-05T13:12:49;7.47;;;4.72;;
37655;SDS011;23498;50.958;3.124;2023-03-05T13:15:19;9.93;;;5.50;;
37655;SDS011;23498;50.958;3.124;2023-03-05T13:18:24;7.90;;;4.68;;
37655;SDS011;23498;50.958;3.124;2023-03-05T13:21:04;7.75;;;4.95;;
37655;SDS011;23498;50.958;3.124;2023-03-05T13:23:32;10.25;;;6.53;;
37655;SDS011;23498;50.958;3.124;2023-03-05T13:28:24;10.77;;;7.03;;
37655;SDS011;23498;50.958;3.124;2023-03-05T13:30:52;11.50;;;6.47;;
37655;SDS011;23498;50.958;3.124;2023-03-05T13:33:24;14.45;;;8.52;;
37655;SDS011;23498;50.958;3.124;2023-03-05T13:35:50;13.52;;;7.43;;
37655;SDS011;23498;50.958;3.124;2023-03-05T13:43:43;14.95;;;8.43;;
37655;SDS011;23498;50.958;3.124;2023-03-05T13:46:12;11.23;;;7.97;;
37655;SDS011;23498;50.958;3.124;2023-03-05T13:48:45;15.18;;;8.13;;
37655;SDS011;23498;50.958;3.124;2023-03-05T13:51:39;15.27;;;9.00;;
37655;SDS011;23498;50.958;3.124;2023-03-05T14:27:37;18.00;;;11.05;;
37655;SDS011;23498;50.958;3.124;2023-03-05T14:30:04;19.77;;;11.38;;
37655;SDS011;23498;50.958;3.124;2023-03-05T14:35:48;19.83;;;12.10;;
37655;SDS011;23498;50.958;3.124;2023-03-05T14:48:45;20.00;;;12.27;;
37655;SDS011;23498;50.958;3.124;2023-03-05T14:51:11;19.60;;;11.45;;
37655;SDS011;23498;50.958;3.124;2023-03-05T14:53:38;21.65;;;12.60;;
37655;SDS011;23498;50.958;3.124;2023-03-05T14:56:05;23.70;;;14.13;;
37655;SDS011;23498;50.958;3.124;2023-03-05T14:58:47;23.02;;;13.55;;
37655;SDS011;23498;50.958;3.124;2023-03-05T15:01:13;22.42;;;13.07;;
37655;SDS011;23498;50.958;3.124;2023-03-05T15:03:39;26.02;;;16.25;;
37655;SDS011;23498;50.958;3.124;2023-03-05T15:06:06;28.23;;;16.85;;
37655;SDS011;23498;50.958;3.124;2023-03-05T15:08:35;28.63;;;16.63;;
37655;SDS011;23498;50.958;3.124;2023-03-05T15:11:01;30.50;;;17.67;;
37655;SDS011;23498;50.958;3.124;2023-03-05T15:13:28;26.17;;;14.63;;
37655;SDS011;23498;50.958;3.124;2023-03-05T15:15:55;28.73;;;17.27;;
37655;SDS011;23498;50.958;3.124;2023-03-05T15:18:21;28.23;;;16.90;;
37655;SDS011;23498;50.958;3.124;2023-03-05T15:20:48;35.90;;;20.77;;
37655;SDS011;23498;50.958;3.124;2023-03-05T15:23:16;25.02;;;14.73;;
37655;SDS011;23498;50.958;3.124;2023-03-05T15:25:43;26.02;;;15.63;;
37655;SDS011;23498;50.958;3.124;2023-03-05T15:28:09;27.45;;;16.63;;
37655;SDS011;23498;50.958;3.124;2023-03-05T15:30:40;29.65;;;17.00;;
37655;SDS011;23498;50.958;3.124;2023-03-05T15:36:35;25.40;;;15.35;;
37655;SDS011;23498;50.958;3.124;2023-03-05T15:39:02;26.63;;;16.35;;
37655;SDS011;23498;50.958;3.124;2023-03-05T15:41:28;22.88;;;12.68;;
37655;SDS011;23498;50.958;3.124;2023-03-05T15:43:54;24.38;;;14.13;;
37655;SDS011;23498;50.958;3.124;2023-03-05T15:49:33;25.23;;;16.25;;
37655;SDS011;23498;50.958;3.124;2023-03-05T15:51:59;24.85;;;14.45;;
37655;SDS011;23498;50.958;3.124;2023-03-05T16:05:21;31.77;;;17.30;;
37655;SDS011;23498;50.958;3.124;2023-03-05T16:07:48;28.02;;;16.38;;
37655;SDS011;23498;50.958;3.124;2023-03-05T16:13:30;24.55;;;15.85;;
37655;SDS011;23498;50.958;3.124;2023-03-05T16:16:17;26.02;;;15.93;;
37655;SDS011;23498;50.958;3.124;2023-03-05T16:18:49;28.15;;;15.95;;
37655;SDS011;23498;50.958;3.124;2023-03-05T16:21:17;28.98;;;17.60;;
37655;SDS011;23498;50.958;3.124;2023-03-05T16:23:48;34.13;;;18.15;;
37655;SDS011;23498;50.958;3.124;2023-03-05T16:26:14;31.05;;;18.27;;
37655;SDS011;23498;50.958;3.124;2023-03-05T16:28:41;29.92;;;18.60;;
37655;SDS011;23498;50.958;3.124;2023-03-05T16:40:16;27.75;;;16.40;;
37655;SDS011;23498;50.958;3.124;2023-03-05T16:42:45;28.02;;;16.40;;
37655;SDS011;23498;50.958;3.124;2023-03-05T16:45:11;32.15;;;18.38;;
37655;SDS011;23498;50.958;3.124;2023-03-05T16:47:38;27.67;;;15.75;;
37655;SDS011;23498;50.958;3.124;2023-03-05T16:50:04;26.40;;;16.15;;
37655;SDS011;23498;50.958;3.124;2023-03-05T16:52:30;27.08;;;14.27;;
37655;SDS011;23498;50.958;3.124;2023-03-05T16:54:56;25.42;;;15.27;;
37655;SDS011;23498;50.958;3.124;2023-03-05T17:00:15;28.27;;;15.73;;
37655;SDS011;23498;50.958;3.124;2023-03-05T17:02:42;26.17;;;15.40;;
37655;SDS011;23498;50.958;3.124;2023-03-05T17:05:12;28.27;;;16.30;;
37655;SDS011;23498;50.958;3.124;2023-03-05T17:08:07;31.00;;;16.58;;
37655;SDS011;23498;50.958;3.124;2023-03-05T17:10:55;30.70;;;17.80;;
37655;SDS011;23498;50.958;3.124;2023-03-05T17:13:37;30.90;;;17.40;;
37655;SDS011;23498;50.958;3.124;2023-03-05T17:16:05;32.50;;;17.83;;
37655;SDS011;23498;50.958;3.124;2023-03-05T17:18:31;32.65;;;18.75;;
37655;SDS011;23498;50.958;3.124;2023-03-05T17:20:59;32.50;;;19.65;;
37655;SDS011;23498;50.958;3.124;2023-03-05T17:23:25;40.78;;;22.52;;
37655;SDS011;23498;50.958;3.124;2023-03-05T17:25:51;45.70;;;24.80;;
37655;SDS011;23498;50.958;3.124;2023-03-05T17:28:17;39.70;;;21.33;;
37655;SDS011;23498;50.958;3.124;2023-03-05T17:30:44;46.58;;;25.10;;
37655;SDS011;23498;50.958;3.124;2023-03-05T17:33:10;44.45;;;23.58;;
37655;SDS011;23498;50.958;3.124;2023-03-05T17:35:36;39.78;;;22.13;;
37655;SDS011;23498;50.958;3.124;2023-03-05T17:38:03;49.50;;;25.55;;
37655;SDS011;23498;50.958;3.124;2023-03-05T17:40:31;37.47;;;20.23;;
37655;SDS011;23498;50.958;3.124;2023-03-05T17:42:57;36.45;;;21.00;;
37655;SDS011;23498;50.958;3.124;2023-03-05T17:45:26;42.83;;;24.20;;
37655;SDS011;23498;50.958;3.124;2023-03-05T17:47:53;45.30;;;23.40;;
37655;SDS011;23498;50.958;3.124;2023-03-05T17:50:20;29.60;;;18.40;;
37655;SDS011;23498;50.958;3.124;2023-03-05T17:52:46;33.67;;;18.15;;
37655;SDS011;23498;50.958;3.124;2023-03-05T17:55:13;30.92;;;17.08;;
37655;SDS011;23498;50.958;3.124;2023-03-05T17:58:27;29.98;;;18.20;;
37655;SDS011;23498;50.958;3.124;2023-03-05T18:00:53;47.83;;;27.30;;
37655;SDS011;23498;50.958;3.124;2023-03-05T18:03:19;35.42;;;18.52;;
37655;SDS011;23498;50.958;3.124;2023-03-05T18:05:45;39.85;;;21.33;;
37655;SDS011;23498;50.958;3.124;2023-03-05T18:08:14;33.88;;;18.75;;
37655;SDS011;23498;50.958;3.124;2023-03-05T18:10:40;36.55;;;18.80;;
37655;SDS011;23498;50.958;3.124;2023-03-05T18:13:06;32.95;;;19.67;;
37655;SDS011;23498;50.958;3.124;2023-03-05T18:15:32;31.58;;;19.40;;
37655;SDS011;23498;50.958;3.124;2023-03-05T18:17:58;39.40;;;23.15;;
37655;SDS011;23498;50.958;3.124;2023-03-05T18:23:00;51.72;;;36.15;;
37655;SDS011;23498;50.958;3.124;2023-03-05T18:25:27;35.40;;;21.55;;
37655;SDS011;23498;50.958;3.124;2023-03-05T18:28:00;35.70;;;21.23;;
37655;SDS011;23498;50.958;3.124;2023-03-05T18:30:35;33.65;;;19.42;;
37655;SDS011;23498;50.958;3.124;2023-03-05T18:33:05;33.33;;;19.65;;
37655;SDS011;23498;50.958;3.124;2023-03-05T18:35:31;29.50;;;17.77;;
37655;SDS011;23498;50.958;3.124;2023-03-05T18:37:57;32.70;;;19.25;;
37655;SDS011;23498;50.958;3.124;2023-03-05T18:40:24;35.17;;;19.55;;
37655;SDS011;23498;50.958;3.124;2023-03-05T18:42:50;33.72;;;19.10;;
37655;SDS011;23498;50.958;3.124;2023-03-05T18:45:17;33.20;;;19.00;;
37655;SDS011;23498;50.958;3.124;2023-03-05T18:47:43;35.45;;;19.92;;
37655;SDS011;23498;50.958;3.124;2023-03-05T18:50:11;33.35;;;19.35;;
37655;SDS011;23498;50.958;3.124;2023-03-05T18:52:42;33.95;;;19.50;;
37655;SDS011;23498;50.958;3.124;2023-03-05T18:55:19;35.30;;;20.33;;
37655;SDS011;23498;50.958;3.124;2023-03-05T18:57:45;38.15;;;23.05;;
37655;SDS011;23498;50.958;3.124;2023-03-05T19:00:12;43.78;;;23.38;;
37655;SDS011;23498;50.958;3.124;2023-03-05T19:02:39;35.85;;;21.77;;
37655;SDS011;23498;50.958;3.124;2023-03-05T19:05:05;36.00;;;20.02;;
37655;SDS011;23498;50.958;3.124;2023-03-05T19:07:31;35.65;;;19.67;;
37655;SDS011;23498;50.958;3.124;2023-03-05T19:09:59;32.78;;;19.20;;
37655;SDS011;23498;50.958;3.124;2023-03-05T19:12:31;35.97;;;20.30;;
37655;SDS011;23498;50.958;3.124;2023-03-05T19:14:59;38.13;;;20.88;;
37655;SDS011;23498;50.958;3.124;2023-03-05T19:17:26;33.25;;;20.05;;
37655;SDS011;23498;50.958;3.124;2023-03-05T19:19:52;34.67;;;21.17;;
37655;SDS011;23498;50.958;3.124;2023-03-05T19:22:19;32.90;;;18.48;;
37655;SDS011;23498;50.958;3.124;2023-03-05T19:24:45;30.20;;;18.08;;
37655;SDS011;23498;50.958;3.124;2023-03-05T19:27:11;32.75;;;18.45;;
37655;SDS011;23498;50.958;3.124;2023-03-05T19:29:38;32.55;;;19.35;;
37655;SDS011;23498;50.958;3.124;2023-03-05T19:32:09;32.58;;;18.48;;
37655;SDS011;23498;50.958;3.124;2023-03-05T19:34:36;34.25;;;18.88;;
37655;SDS011;23498;50.958;3.124;2023-03-05T19:37:02;34.10;;;19.67;;
37655;SDS011;23498;50.958;3.124;2023-03-05T19:39:29;34.47;;;20.08;;
37655;SDS011;23498;50.958;3.124;2023-03-05T19:41:55;36.20;;;20.42;;
37655;SDS011;23498;50.958;3.124;2023-03-05T19:44:21;35.65;;;19.25;;
37655;SDS011;23498;50.958;3.124;2023-03-05T19:46:48;35.38;;;20.33;;
37655;SDS011;23498;50.958;3.124;2023-03-05T19:49:14;31.92;;;19.00;;
37655;SDS011;23498;50.958;3.124;2023-03-05T19:51:41;34.45;;;19.75;;
37655;SDS011;23498;50.958;3.124;2023-03-05T19:54:08;38.05;;;19.08;;
37655;SDS011;23498;50.958;3.124;2023-03-05T19:56:36;34.40;;;19.73;;
37655;SDS011;23498;50.958;3.124;2023-03-05T19:59:02;35.58;;;19.65;;
37655;SDS011;23498;50.958;3.124;2023-03-05T20:01:28;34.83;;;19.92;;
37655;SDS011;23498;50.958;3.124;2023-03-05T20:03:55;36.13;;;19.98;;
37655;SDS011;23498;50.958;3.124;2023-03-05T20:06:22;34.75;;;19.35;;
37655;SDS011;23498;50.958;3.124;2023-03-05T20:08:49;34.83;;;19.13;;
37655;SDS011;23498;50.958;3.124;2023-03-05T20:11:15;33.38;;;19.40;;
37655;SDS011;23498;50.958;3.124;2023-03-05T20:13:42;37.45;;;19.83;;
37655;SDS011;23498;50.958;3.124;2023-03-05T20:16:18;33.40;;;19.13;;
37655;SDS011;23498;50.958;3.124;2023-03-05T20:18:45;36.33;;;20.80;;
37655;SDS011;23498;50.958;3.124;2023-03-05T20:21:13;33.42;;;19.45;;
37655;SDS011;23498;50.958;3.124;2023-03-05T20:23:45;33.03;;;19.85;;
37655;SDS011;23498;50.958;3.124;2023-03-05T20:26:11;34.28;;;20.80;;
37655;SDS011;23498;50.958;3.124;2023-03-05T20:28:37;37.08;;;21.70;;
37655;SDS011;23498;50.958;3.124;2023-03-05T20:31:03;34.15;;;19.48;;
37655;SDS011;23498;50.958;3.124;2023-03-05T20:33:29;35.20;;;20.15;;
37655;SDS011;23498;50.958;3.124;2023-03-05T20:35:55;36.15;;;20.65;;
37655;SDS011;23498;50.958;3.124;2023-03-05T20:38:21;34.40;;;21.02;;
37655;SDS011;23498;50.958;3.124;2023-03-05T20:40:57;34.10;;;19.00;;
37655;SDS011;23498;50.958;3.124;2023-03-05T20:43:25;34.90;;;18.90;;
37655;SDS011;23498;50.958;3.124;2023-03-05T20:45:51;32.63;;;18.25;;
37655;SDS011;23498;50.958;3.124;2023-03-05T20:48:18;34.85;;;19.77;;
37655;SDS011;23498;50.958;3.124;2023-03-05T20:50:44;35.00;;;18.63;;
37655;SDS011;23498;50.958;3.124;2023-03-05T20:53:13;32.33;;;18.60;;
37655;SDS011;23498;50.958;3.124;2023-03-05T20:55:40;32.47;;;17.75;;
37655;SDS011;23498;50.958;3.124;2023-03-05T20:58:06;32.03;;;18.45;;
37655;SDS011;23498;50.958;3.124;2023-03-05T21:00:32;32.70;;;18.27;;
37655;SDS011;23498;50.958;3.124;2023-03-05T21:02:58;37.17;;;20.13;;
37655;SDS011;23498;50.958;3.124;2023-03-05T21:05:25;39.10;;;20.25;;
37655;SDS011;23498;50.958;3.124;2023-03-05T21:07:51;34.13;;;19.33;;
37655;SDS011;23498;50.958;3.124;2023-03-05T21:10:18;38.13;;;21.45;;
37655;SDS011;23498;50.958;3.124;2023-03-05T21:12:45;36.60;;;20.13;;
37655;SDS011;23498;50.958;3.124;2023-03-05T21:15:11;36.22;;;19.98;;